Atlantic Beach, South Carolina
Current Conditions -  °F | °C
As of 3:53 PM on Thursday 23 Oct 2014 (Local Time) from KCRE Reporting Station
Clear Clear  
Wind Chill: 69°   Ceiling: Unl
Heat Index: 69°   Visibility: 10mi
Dew Point: 44°   Wind: 10mph
Humidity: 40%   Direction: 290°WNW
Pressure: 29.95"   Gusts: 18mph
Location:  33.8371°N, 78.6471°W
Report Text: KCRE 231953Z AUTO 29009G16KT 10SM CLR 21/07 A2995 RMK AO1 SLP142 T02060067
Loading
Personal Weather Stations






























Interactive Weather Map New forecast layout! Learn more

10-Day Weather Forecast

Advertisements
Track Severe Weather on mobile